createdAt,value
2017-02-21T00:00:02.480Z,7.19
2017-02-21T00:00:06.968Z,7.23
2017-02-21T00:00:11.457Z,7.21
2017-02-21T00:00:15.829Z,7.26
2017-02-21T00:00:20.471Z,7.29
2017-02-21T00:00:24.987Z,7.19
2017-02-21T00:00:29.627Z,7.26
2017-02-21T00:00:34.311Z,7.24
2017-02-21T00:00:38.825Z,7.21
2017-02-21T00:00:43.466Z,7.24
2017-02-21T00:00:48.111Z,7.23
2017-02-21T00:00:52.753Z,7.23
2017-02-21T00:00:57.398Z,7.23
2017-02-21T00:01:01.899Z,7.24
2017-02-21T00:01:06.529Z,7.18
2017-02-21T00:01:11.071Z,7.18
2017-02-21T00:01:15.567Z,7.29
2017-02-21T00:01:20.221Z,7.18
2017-02-21T00:01:24.752Z,7.24
2017-02-21T00:01:29.431Z,7.23
2017-02-21T00:01:33.933Z,7.23
2017-02-21T00:01:38.578Z,7.18
2017-02-21T00:01:43.072Z,7.24
2017-02-21T00:01:47.723Z,7.23
2017-02-21T00:01:52.221Z,7.24
2017-02-21T00:01:56.895Z,7.24
2017-02-21T00:02:01.551Z,7.21
2017-02-21T00:02:06.193Z,7.24
2017-02-21T00:02:10.690Z,7.21
2017-02-21T00:02:15.056Z,7.27
2017-02-21T00:02:19.722Z,7.29
2017-02-21T00:02:24.231Z,7.26
2017-02-21T00:02:28.757Z,7.23
2017-02-21T00:02:33.395Z,7.24
2017-02-21T00:02:38.041Z,7.24
2017-02-21T00:02:42.579Z,7.26
2017-02-21T00:02:46.917Z,7.26
2017-02-21T00:02:51.427Z,7.23
2017-02-21T00:02:55.944Z,7.26
2017-02-21T00:03:00.582Z,7.26
2017-02-21T00:03:05.522Z,7.27
2017-02-21T00:03:10.047Z,7.26
2017-02-21T00:03:14.732Z,7.23
2017-02-21T00:03:19.397Z,7.27
2017-02-21T00:03:23.931Z,7.21
2017-02-21T00:03:28.577Z,7.23
2017-02-21T00:03:33.230Z,7.21
2017-02-21T00:03:37.870Z,7.19
2017-02-21T00:03:42.237Z,7.21
2017-02-21T00:03:46.748Z,7.23
2017-02-21T00:03:51.233Z,7.23
2017-02-21T00:03:55.869Z,7.24
2017-02-21T00:04:00.356Z,7.24
2017-02-21T00:04:04.998Z,7.14
2017-02-21T00:04:09.198Z,7.23
2017-02-21T00:04:13.850Z,7.23
2017-02-21T00:04:18.501Z,7.23
2017-02-21T00:04:22.856Z,7.24
2017-02-21T00:04:27.517Z,7.26
2017-02-21T00:04:32.164Z,7.24
2017-02-21T00:04:36.819Z,7.19
2017-02-21T00:04:41.481Z,7.32
2017-02-21T00:04:45.859Z,7.18
2017-02-21T00:04:50.354Z,7.24
2017-02-21T00:04:55.010Z,7.23
2017-02-21T00:04:59.503Z,7.23
2017-02-21T00:05:04.186Z,7.26
2017-02-21T00:05:08.851Z,7.18
2017-02-21T00:05:13.355Z,7.26
2017-02-21T00:05:18.007Z,7.24
2017-02-21T00:05:22.671Z,7.24
2017-02-21T00:05:27.150Z,7.19
2017-02-21T00:05:31.817Z,7.24
2017-02-21T00:05:36.516Z,7.18
2017-02-21T00:05:41.155Z,7.26
2017-02-21T00:05:45.807Z,7.24
2017-02-21T00:05:50.472Z,7.23
2017-02-21T00:05:55.102Z,7.18
2017-02-21T00:05:59.743Z,7.23
2017-02-21T00:06:04.603Z,7.18
2017-02-21T00:06:09.118Z,7.19
2017-02-21T00:06:13.624Z,7.21
2017-02-21T00:06:18.252Z,7.23
2017-02-21T00:06:22.898Z,7.18
2017-02-21T00:06:27.549Z,7.23
2017-02-21T00:06:32.201Z,7.19
2017-02-21T00:06:36.700Z,7.21
2017-02-21T00:06:41.217Z,7.15
2017-02-21T00:06:45.869Z,7.19
2017-02-21T00:06:50.502Z,7.21
2017-02-21T00:06:55.181Z,7.24
2017-02-21T00:06:59.813Z,7.12
2017-02-21T00:07:04.471Z,7.16
2017-02-21T00:07:09.132Z,7.24
2017-02-21T00:07:13.618Z,7.19
2017-02-21T00:07:18.118Z,7.23
2017-02-21T00:07:22.769Z,7.24
2017-02-21T00:07:27.271Z,7.21
2017-02-21T00:07:31.949Z,7.24
2017-02-21T00:07:36.440Z,7.24
2017-02-21T00:07:41.082Z,7.19
2017-02-21T00:07:45.591Z,7.26
2017-02-21T00:07:49.921Z,7.15
2017-02-21T00:07:54.580Z,7.23
2017-02-21T00:07:59.206Z,7.21
2017-02-21T00:08:03.975Z,7.16
2017-02-21T00:08:08.356Z,7.26
2017-02-21T00:08:12.726Z,7.18
2017-02-21T00:08:17.397Z,7.21
2017-02-21T00:08:22.032Z,7.12
2017-02-21T00:08:26.687Z,7.21
2017-02-21T00:08:31.315Z,7.21
2017-02-21T00:08:35.969Z,7.19
2017-02-21T00:08:40.469Z,7.19
2017-02-21T00:08:45.104Z,7.19
2017-02-21T00:08:49.451Z,7.26
2017-02-21T00:08:53.956Z,7.24
2017-02-21T00:08:58.604Z,7.23
2017-02-21T00:09:03.383Z,7.09
2017-02-21T00:09:08.031Z,7.18
2017-02-21T00:09:12.522Z,7.21
2017-02-21T00:09:17.029Z,7.24
2017-02-21T00:09:21.681Z,7.18
2017-02-21T00:09:26.347Z,7.19
2017-02-21T00:09:31.000Z,7.26
2017-02-21T00:09:35.692Z,7.23
2017-02-21T00:09:40.077Z,7.08
2017-02-21T00:09:44.578Z,7.27
2017-02-21T00:09:49.083Z,7.12
2017-02-21T00:09:53.741Z,7.21
2017-02-21T00:09:58.393Z,7.26
2017-02-21T00:10:03.061Z,7.18
2017-02-21T00:10:07.555Z,7.23
2017-02-21T00:10:12.056Z,7.23
2017-02-21T00:10:16.700Z,7.24
2017-02-21T00:10:21.352Z,7.23
2017-02-21T00:10:25.859Z,7.16
2017-02-21T00:10:30.356Z,7.26
2017-02-21T00:10:35.015Z,7.19
2017-02-21T00:10:39.662Z,7.19
2017-02-21T00:10:44.321Z,7.24
2017-02-21T00:10:48.842Z,7.18
2017-02-21T00:10:53.469Z,7.27
2017-02-21T00:10:58.185Z,7.21
2017-02-21T00:11:02.821Z,7.21
2017-02-21T00:11:07.316Z,7.26
2017-02-21T00:11:11.966Z,7.27
2017-02-21T00:11:16.621Z,7.29
2017-02-21T00:11:21.276Z,7.29
2017-02-21T00:11:25.494Z,7.29
2017-02-21T00:11:30.140Z,7.23
2017-02-21T00:11:34.790Z,7.27
2017-02-21T00:11:39.290Z,7.21
2017-02-21T00:11:43.941Z,7.19
2017-02-21T00:11:48.287Z,7.3
2017-02-21T00:11:52.925Z,7.21
2017-02-21T00:11:57.568Z,7.11
2017-02-21T00:12:02.572Z,7.3
2017-02-21T00:12:07.054Z,7.23
2017-02-21T00:12:11.560Z,7.24
2017-02-21T00:12:16.089Z,7.18
2017-02-21T00:12:20.718Z,7.24
2017-02-21T00:12:25.210Z,7.18
2017-02-21T00:12:29.853Z,7.21
2017-02-21T00:12:34.508Z,7.24
2017-02-21T00:12:39.139Z,7.16
2017-02-21T00:12:43.778Z,7.26
2017-02-21T00:12:48.432Z,7.19
2017-02-21T00:12:52.944Z,7.18
2017-02-21T00:12:57.591Z,7.23
2017-02-21T00:13:02.384Z,7.26
2017-02-21T00:13:07.034Z,7.26
2017-02-21T00:13:11.530Z,7.18
2017-02-21T00:13:15.924Z,7.23
2017-02-21T00:13:20.570Z,7.27
2017-02-21T00:13:24.930Z,7.29
2017-02-21T00:13:29.588Z,7.21
2017-02-21T00:13:34.230Z,7.18
2017-02-21T00:13:38.717Z,7.19
2017-02-21T00:13:43.364Z,7.19
2017-02-21T00:13:47.888Z,7.15
2017-02-21T00:13:52.387Z,7.19
2017-02-21T00:13:56.731Z,7.24
2017-02-21T00:14:01.478Z,7.19
2017-02-21T00:14:06.121Z,7.24
2017-02-21T00:14:10.469Z,7.23
2017-02-21T00:14:14.985Z,7.18
2017-02-21T00:14:19.627Z,7.19
2017-02-21T00:14:24.123Z,7.23
2017-02-21T00:14:28.665Z,7.21
2017-02-21T00:14:33.301Z,7.21
2017-02-21T00:14:37.954Z,7.24
2017-02-21T00:14:42.616Z,7.23
2017-02-21T00:14:47.257Z,7.3
2017-02-21T00:14:51.762Z,7.24
2017-02-21T00:14:56.400Z,7.23
2017-02-21T00:15:01.037Z,7.23
2017-02-21T00:15:05.848Z,7.29
2017-02-21T00:15:10.485Z,7.21
2017-02-21T00:15:14.828Z,7.23
2017-02-21T00:15:19.338Z,7.27
2017-02-21T00:15:23.850Z,7.21
2017-02-21T00:15:28.351Z,7.23
2017-02-21T00:15:32.986Z,7.23
2017-02-21T00:15:37.644Z,7.26
2017-02-21T00:15:42.192Z,7.19
2017-02-21T00:15:46.832Z,7.26
2017-02-21T00:15:51.318Z,7.24
2017-02-21T00:15:55.822Z,7.26
2017-02-21T00:16:00.479Z,7.19
2017-02-21T00:16:05.140Z,7.18
2017-02-21T00:16:09.641Z,7.21
2017-02-21T00:16:14.266Z,7.3
2017-02-21T00:16:18.928Z,7.24
2017-02-21T00:16:23.454Z,7.19
2017-02-21T00:16:27.801Z,7.23
2017-02-21T00:16:32.453Z,7.23
2017-02-21T00:16:37.102Z,7.18
2017-02-21T00:16:41.462Z,7.19
2017-02-21T00:16:45.969Z,7.27
2017-02-21T00:16:50.471Z,7.24
2017-02-21T00:16:55.127Z,7.26
2017-02-21T00:16:59.626Z,7.24
2017-02-21T00:17:04.329Z,7.24
2017-02-21T00:17:08.974Z,7.19
2017-02-21T00:17:13.628Z,7.19
2017-02-21T00:17:18.252Z,7.16
2017-02-21T00:17:22.762Z,7.23
2017-02-21T00:17:27.140Z,7.27
2017-02-21T00:17:31.790Z,7.24
2017-02-21T00:17:36.301Z,7.18
2017-02-21T00:17:40.841Z,7.23
2017-02-21T00:17:45.560Z,7.21
2017-02-21T00:17:50.071Z,7.29
2017-02-21T00:17:54.701Z,7.21
2017-02-21T00:17:59.332Z,7.26
2017-02-21T00:18:03.959Z,7.21
2017-02-21T00:18:08.626Z,7.19
2017-02-21T00:18:12.981Z,7.24
2017-02-21T00:18:17.610Z,7.23
2017-02-21T00:18:22.100Z,7.24
2017-02-21T00:18:26.780Z,7.27
2017-02-21T00:18:31.426Z,7.21
2017-02-21T00:18:36.058Z,7.19
2017-02-21T00:18:40.706Z,7.23
2017-02-21T00:18:45.366Z,7.26
2017-02-21T00:18:49.861Z,7.21
2017-02-21T00:18:54.497Z,7.23
2017-02-21T00:18:59.133Z,7.23
2017-02-21T00:19:03.656Z,7.26
2017-02-21T00:19:08.305Z,7.3
2017-02-21T00:19:12.806Z,7.21
2017-02-21T00:19:17.293Z,7.21
2017-02-21T00:19:21.954Z,7.26
2017-02-21T00:19:26.466Z,7.26
2017-02-21T00:19:31.107Z,7.29
2017-02-21T00:19:35.636Z,7.24
2017-02-21T00:19:40.287Z,7.24
2017-02-21T00:19:44.924Z,7.26
2017-02-21T00:19:49.592Z,7.3
2017-02-21T00:19:54.257Z,7.29
2017-02-21T00:19:58.788Z,7.23
2017-02-21T00:20:03.426Z,7.19
2017-02-21T00:20:07.927Z,7.18
2017-02-21T00:20:12.412Z,7.27
2017-02-21T00:20:16.773Z,7.19
2017-02-21T00:20:21.435Z,7.19
2017-02-21T00:20:25.922Z,7.32
2017-02-21T00:20:30.413Z,7.26
2017-02-21T00:20:35.062Z,7.3
2017-02-21T00:20:39.702Z,7.24
2017-02-21T00:20:44.349Z,7.23
2017-02-21T00:20:48.880Z,7.26
2017-02-21T00:20:53.504Z,7.23
2017-02-21T00:20:58.003Z,7.23
2017-02-21T00:21:02.377Z,7.29
2017-02-21T00:21:07.027Z,7.26
2017-02-21T00:21:11.543Z,7.27
2017-02-21T00:21:16.209Z,7.18
2017-02-21T00:21:20.702Z,7.23
2017-02-21T00:21:25.347Z,7.26
2017-02-21T00:21:29.978Z,7.27
2017-02-21T00:21:34.493Z,7.26
2017-02-21T00:21:38.994Z,7.23
2017-02-21T00:21:43.639Z,7.26
2017-02-21T00:21:48.143Z,7.29
2017-02-21T00:21:52.650Z,7.24
2017-02-21T00:21:57.317Z,7.21
2017-02-21T00:22:01.980Z,7.29
2017-02-21T00:22:06.489Z,7.19
2017-02-21T00:22:10.850Z,7.26
2017-02-21T00:22:15.495Z,7.27
2017-02-21T00:22:20.134Z,7.29
2017-02-21T00:22:24.786Z,7.3
2017-02-21T00:22:29.492Z,7.19
2017-02-21T00:22:34.146Z,7.26
2017-02-21T00:22:38.497Z,7.23
2017-02-21T00:22:43.009Z,7.23
2017-02-21T00:22:47.511Z,7.24
2017-02-21T00:22:52.012Z,7.19
2017-02-21T00:22:56.670Z,7.19
2017-02-21T00:23:01.035Z,7.19
2017-02-21T00:23:05.665Z,7.24
2017-02-21T00:23:10.173Z,7.24
2017-02-21T00:23:14.677Z,7.19
2017-02-21T00:23:19.334Z,7.19
2017-02-21T00:23:24.002Z,7.23
2017-02-21T00:23:28.653Z,7.21
2017-02-21T00:23:33.304Z,7.26
2017-02-21T00:23:37.977Z,7.24
2017-02-21T00:23:42.502Z,7.27
2017-02-21T00:23:47.000Z,7.18
2017-02-21T00:23:51.516Z,7.19
2017-02-21T00:23:56.020Z,7.21
2017-02-21T00:24:00.658Z,7.27
2017-02-21T00:24:05.560Z,7.23
2017-02-21T00:24:10.077Z,7.29
2017-02-21T00:24:14.603Z,7.21
2017-02-21T00:24:19.239Z,7.19
2017-02-21T00:24:23.898Z,7.18
2017-02-21T00:24:28.396Z,7.26
2017-02-21T00:24:33.021Z,7.23
2017-02-21T00:24:37.682Z,7.21
2017-02-21T00:24:42.348Z,7.3
2017-02-21T00:24:46.847Z,7.21
2017-02-21T00:24:51.198Z,7.3
2017-02-21T00:24:55.832Z,7.26
2017-02-21T00:25:00.347Z,7.21
2017-02-21T00:25:04.997Z,7.27
2017-02-21T00:25:09.492Z,7.19
2017-02-21T00:25:14.141Z,7.24
2017-02-21T00:25:18.788Z,7.23
2017-02-21T00:25:23.145Z,7.24
2017-02-21T00:25:27.844Z,7.19
2017-02-21T00:25:32.352Z,7.21
2017-02-21T00:25:37.003Z,7.23
2017-02-21T00:25:41.512Z,7.15
2017-02-21T00:25:46.150Z,7.21
2017-02-21T00:25:50.656Z,7.19
2017-02-21T00:25:55.171Z,7.24
2017-02-21T00:25:59.828Z,7.23
2017-02-21T00:26:04.490Z,7.26
2017-02-21T00:26:09.009Z,7.27
2017-02-21T00:26:13.361Z,7.24
2017-02-21T00:26:18.025Z,7.29
2017-02-21T00:26:22.681Z,7.23
2017-02-21T00:26:27.040Z,7.16
2017-02-21T00:26:31.575Z,7.24
2017-02-21T00:26:36.228Z,7.26
2017-02-21T00:26:40.871Z,7.18
2017-02-21T00:26:45.376Z,7.27
2017-02-21T00:26:49.891Z,7.16
2017-02-21T00:26:54.394Z,7.24
2017-02-21T00:26:58.935Z,7.21
2017-02-21T00:27:03.613Z,7.19
2017-02-21T00:27:08.122Z,7.19
2017-02-21T00:27:12.788Z,7.26
2017-02-21T00:27:17.450Z,7.24
2017-02-21T00:27:22.104Z,7.14
2017-02-21T00:27:26.464Z,7.23
2017-02-21T00:27:31.111Z,7.26
2017-02-21T00:27:35.737Z,7.26
2017-02-21T00:27:40.410Z,7.18
2017-02-21T00:27:45.078Z,7.19
2017-02-21T00:27:49.583Z,7.24
2017-02-21T00:27:54.224Z,7.24
2017-02-21T00:27:58.721Z,7.18
2017-02-21T00:28:03.364Z,7.21
2017-02-21T00:28:08.022Z,7.21
2017-02-21T00:28:12.533Z,7.12
2017-02-21T00:28:17.162Z,7.21
2017-02-21T00:28:21.822Z,7.19
2017-02-21T00:28:26.316Z,7.16
2017-02-21T00:28:30.840Z,7.18
2017-02-21T00:28:35.491Z,7.24
2017-02-21T00:28:40.140Z,7.19
2017-02-21T00:28:44.651Z,7.12
2017-02-21T00:28:49.296Z,7.26
2017-02-21T00:28:53.633Z,7.27
2017-02-21T00:28:58.304Z,7.21
2017-02-21T00:29:03.065Z,7.27
2017-02-21T00:29:07.415Z,7.18
2017-02-21T00:29:12.073Z,7.19
2017-02-21T00:29:16.730Z,7.21
2017-02-21T00:29:21.374Z,7.18
2017-02-21T00:29:25.875Z,7.26
2017-02-21T00:29:30.515Z,7.26
2017-02-21T00:29:35.167Z,7.24
2017-02-21T00:29:39.667Z,7.21
2017-02-21T00:29:44.332Z,7.24
2017-02-21T00:29:48.819Z,7.16
2017-02-21T00:29:53.480Z,7.19
2017-02-21T00:29:58.177Z,7.16
2017-02-21T00:30:02.679Z,7.19
2017-02-21T00:30:07.025Z,7.26
2017-02-21T00:30:11.683Z,7.27
2017-02-21T00:30:16.377Z,7.27
2017-02-21T00:30:20.896Z,7.19
2017-02-21T00:30:25.386Z,7.26
2017-02-21T00:30:30.047Z,7.26
2017-02-21T00:30:34.689Z,7.09
2017-02-21T00:30:39.345Z,7.24
2017-02-21T00:30:44.007Z,7.16
2017-02-21T00:30:48.360Z,7.21
2017-02-21T00:30:53.007Z,7.24
2017-02-21T00:30:57.563Z,7.19
2017-02-21T00:31:02.210Z,7.24
2017-02-21T00:31:06.854Z,7.23
2017-02-21T00:31:11.489Z,7.23
2017-02-21T00:31:16.144Z,7.29
2017-02-21T00:31:20.799Z,7.26
2017-02-21T00:31:25.445Z,7.16
2017-02-21T00:31:30.100Z,7.23
2017-02-21T00:31:34.737Z,7.24
2017-02-21T00:31:39.371Z,7.21
2017-02-21T00:31:44.020Z,7.21
2017-02-21T00:31:48.540Z,7.19
2017-02-21T00:31:53.032Z,7.19
2017-02-21T00:31:57.687Z,7.3
2017-02-21T00:32:02.600Z,7.26
2017-02-21T00:32:07.255Z,7.29
2017-02-21T00:32:11.592Z,7.18
2017-02-21T00:32:16.119Z,7.24
2017-02-21T00:32:20.767Z,7.26
2017-02-21T00:32:25.411Z,7.26
2017-02-21T00:32:30.042Z,7.26
2017-02-21T00:32:34.533Z,7.21
2017-02-21T00:32:39.047Z,7.21
2017-02-21T00:32:43.709Z,7.24
2017-02-21T00:32:48.066Z,7.18
2017-02-21T00:32:52.700Z,7.19
2017-02-21T00:32:57.335Z,7.29
2017-02-21T00:33:02.101Z,7.27
2017-02-21T00:33:06.734Z,7.21
2017-02-21T00:33:11.133Z,7.21
2017-02-21T00:33:15.630Z,7.23
2017-02-21T00:33:20.264Z,7.16
2017-02-21T00:33:24.937Z,7.21
2017-02-21T00:33:29.442Z,7.26
2017-02-21T00:33:34.090Z,7.24
2017-02-21T00:33:38.768Z,7.24
2017-02-21T00:33:43.414Z,7.23
2017-02-21T00:33:48.068Z,7.24
2017-02-21T00:33:52.723Z,7.21
2017-02-21T00:33:57.363Z,7.23
2017-02-21T00:34:01.872Z,7.19
2017-02-21T00:34:06.377Z,7.19
2017-02-21T00:34:10.714Z,7.23
2017-02-21T00:34:15.070Z,7.27
2017-02-21T00:34:19.761Z,7.23
2017-02-21T00:34:24.257Z,7.24
2017-02-21T00:34:28.757Z,7.26
2017-02-21T00:34:33.392Z,7.26
2017-02-21T00:34:38.053Z,7.27
2017-02-21T00:34:42.700Z,7.23
2017-02-21T00:34:47.382Z,7.19
2017-02-21T00:34:52.071Z,7.24
2017-02-21T00:34:56.717Z,7.18
2017-02-21T00:35:01.365Z,7.21
2017-02-21T00:35:06.009Z,7.23
2017-02-21T00:35:10.499Z,7.24
2017-02-21T00:35:14.977Z,7.24
2017-02-21T00:35:19.662Z,7.23
2017-02-21T00:35:24.195Z,7.29
2017-02-21T00:35:28.721Z,7.24
2017-02-21T00:35:33.356Z,7.23
2017-02-21T00:35:38.011Z,7.24
2017-02-21T00:35:42.554Z,7.21
2017-02-21T00:35:47.201Z,7.21
2017-02-21T00:35:51.712Z,7.26
2017-02-21T00:35:56.362Z,7.19
2017-02-21T00:36:01.009Z,7.18
2017-02-21T00:36:05.821Z,7.27
2017-02-21T00:36:10.487Z,7.23
2017-02-21T00:36:15.027Z,7.18
2017-02-21T00:36:19.671Z,7.29
2017-02-21T00:36:24.177Z,7.23
2017-02-21T00:36:28.684Z,7.23
2017-02-21T00:36:33.316Z,7.23
2017-02-21T00:36:37.960Z,7.23
2017-02-21T00:36:42.601Z,7.21
2017-02-21T00:36:47.237Z,7.21
2017-02-21T00:36:51.775Z,7.26
2017-02-21T00:36:56.428Z,7.27
2017-02-21T00:37:01.109Z,7.18
2017-02-21T00:37:05.759Z,7.21
2017-02-21T00:37:10.409Z,7.26
2017-02-21T00:37:14.752Z,7.24
2017-02-21T00:37:19.420Z,7.24
2017-02-21T00:37:23.927Z,7.21
2017-02-21T00:37:28.584Z,7.23
2017-02-21T00:37:33.257Z,7.24
2017-02-21T00:37:37.926Z,7.23
2017-02-21T00:37:42.427Z,7.26
2017-02-21T00:37:46.945Z,7.29
2017-02-21T00:37:51.444Z,7.24
2017-02-21T00:37:56.120Z,7.21
2017-02-21T00:38:00.759Z,7.26
2017-02-21T00:38:05.405Z,7.26
2017-02-21T00:38:10.076Z,7.19
2017-02-21T00:38:14.267Z,7.23
2017-02-21T00:38:18.920Z,7.29
2017-02-21T00:38:23.560Z,7.33
2017-02-21T00:38:28.060Z,7.16
2017-02-21T00:38:32.692Z,7.27
2017-02-21T00:38:37.196Z,7.27
2017-02-21T00:38:41.842Z,7.24
2017-02-21T00:38:46.509Z,7.29
2017-02-21T00:38:51.196Z,7.3
2017-02-21T00:38:55.858Z,7.16
2017-02-21T00:39:00.384Z,7.23
2017-02-21T00:39:05.185Z,7.23
2017-02-21T00:39:09.905Z,7.29
2017-02-21T00:39:14.553Z,7.33
2017-02-21T00:39:19.201Z,7.19
2017-02-21T00:39:23.728Z,7.24
2017-02-21T00:39:28.224Z,7.23
2017-02-21T00:39:32.879Z,7.21
2017-02-21T00:39:37.533Z,7.3
2017-02-21T00:39:42.189Z,7.24
2017-02-21T00:39:46.823Z,7.19
2017-02-21T00:39:51.369Z,7.27
2017-02-21T00:39:56.006Z,7.33
2017-02-21T00:40:00.663Z,7.32
2017-02-21T00:40:05.300Z,7.26
2017-02-21T00:40:09.519Z,7.27
2017-02-21T00:40:13.865Z,7.21
2017-02-21T00:40:18.365Z,7.24
2017-02-21T00:40:23.015Z,7.23
2017-02-21T00:40:27.526Z,7.23
2017-02-21T00:40:32.152Z,7.24
2017-02-21T00:40:36.792Z,7.32
2017-02-21T00:40:41.454Z,7.34
2017-02-21T00:40:46.084Z,7.3
2017-02-21T00:40:50.584Z,7.26
2017-02-21T00:40:55.068Z,7.29
2017-02-21T00:40:59.571Z,7.34
2017-02-21T00:41:04.315Z,7.23
2017-02-21T00:41:08.972Z,7.24
2017-02-21T00:41:13.480Z,7.27
2017-02-21T00:41:18.138Z,7.18
2017-02-21T00:41:22.781Z,7.26
2017-02-21T00:41:27.283Z,7.26
2017-02-21T00:41:31.775Z,7.26
2017-02-21T00:41:36.420Z,7.24
2017-02-21T00:41:41.050Z,7.19
2017-02-21T00:41:45.699Z,7.36
2017-02-21T00:41:50.359Z,7.3
2017-02-21T00:41:54.990Z,7.26
2017-02-21T00:41:59.622Z,7.34
2017-02-21T00:42:04.269Z,7.24
2017-02-21T00:42:08.781Z,7.18
2017-02-21T00:42:13.153Z,7.21
2017-02-21T00:42:17.709Z,7.27
2017-02-21T00:42:22.212Z,7.32
2017-02-21T00:42:26.725Z,7.26
2017-02-21T00:42:31.390Z,7.34
2017-02-21T00:42:36.041Z,7.33
2017-02-21T00:42:40.524Z,7.33
2017-02-21T00:42:45.178Z,7.3
2017-02-21T00:42:49.685Z,7.27
2017-02-21T00:42:54.344Z,7.34
2017-02-21T00:42:58.684Z,7.32
2017-02-21T00:43:03.337Z,7.34
2017-02-21T00:43:07.980Z,7.23
2017-02-21T00:43:12.489Z,7.24
2017-02-21T00:43:17.157Z,7.33
2017-02-21T00:43:21.836Z,7.33
2017-02-21T00:43:26.202Z,7.37
2017-02-21T00:43:30.865Z,7.3
2017-02-21T00:43:35.511Z,7.34
2017-02-21T00:43:40.015Z,7.24
2017-02-21T00:43:44.662Z,7.34
2017-02-21T00:43:49.343Z,7.37
2017-02-21T00:43:54.002Z,7.3
2017-02-21T00:43:58.637Z,7.34
2017-02-21T00:44:03.445Z,7.3
2017-02-21T00:44:08.336Z,7.19
2017-02-21T00:44:12.822Z,7.19
2017-02-21T00:44:17.480Z,7.3
2017-02-21T00:44:22.128Z,7.34
2017-02-21T00:44:26.776Z,7.34
2017-02-21T00:44:31.433Z,7.32
2017-02-21T00:44:36.090Z,7.36
2017-02-21T00:44:40.607Z,7.36
2017-02-21T00:44:45.092Z,7.3
2017-02-21T00:44:49.478Z,7.26
2017-02-21T00:44:54.147Z,7.3
2017-02-21T00:44:58.646Z,7.29
2017-02-21T00:45:03.568Z,7.3
2017-02-21T00:45:08.204Z,7.36
2017-02-21T00:45:12.686Z,7.33
2017-02-21T00:45:17.046Z,7.32
2017-02-21T00:45:21.677Z,7.29
2017-02-21T00:45:26.342Z,7.26
2017-02-21T00:45:30.988Z,7.27
2017-02-21T00:45:35.626Z,7.34
2017-02-21T00:45:40.259Z,7.29
2017-02-21T00:45:44.779Z,7.34
2017-02-21T00:45:49.265Z,7.36
2017-02-21T00:45:53.601Z,7.32
2017-02-21T00:45:58.247Z,7.32
2017-02-21T00:46:02.600Z,7.34
2017-02-21T00:46:07.230Z,7.33
2017-02-21T00:46:11.763Z,7.36
2017-02-21T00:46:16.104Z,7.33
2017-02-21T00:46:20.750Z,7.34
2017-02-21T00:46:25.244Z,7.33
2017-02-21T00:46:29.608Z,7.33
2017-02-21T00:46:34.287Z,7.33
2017-02-21T00:46:38.786Z,7.32
2017-02-21T00:46:43.443Z,7.3
2017-02-21T00:46:48.084Z,7.3
2017-02-21T00:46:52.766Z,7.32
2017-02-21T00:46:57.262Z,7.36
2017-02-21T00:47:02.023Z,7.32
2017-02-21T00:47:06.545Z,7.27
2017-02-21T00:47:11.201Z,7.39
2017-02-21T00:47:15.843Z,7.32
2017-02-21T00:47:20.518Z,7.32
2017-02-21T00:47:25.014Z,7.33
2017-02-21T00:47:29.508Z,7.33
2017-02-21T00:47:34.019Z,7.34
2017-02-21T00:47:38.669Z,7.36
2017-02-21T00:47:43.327Z,7.32
2017-02-21T00:47:47.825Z,7.37
2017-02-21T00:47:52.462Z,7.27
2017-02-21T00:47:56.971Z,7.33
2017-02-21T00:48:01.329Z,7.32
2017-02-21T00:48:05.967Z,7.29
2017-02-21T00:48:10.620Z,7.33
2017-02-21T00:48:14.971Z,7.33
2017-02-21T00:48:19.462Z,7.36
2017-02-21T00:48:23.965Z,7.34
2017-02-21T00:48:28.609Z,7.33
2017-02-21T00:48:33.259Z,7.29
2017-02-21T00:48:37.908Z,7.29
2017-02-21T00:48:42.553Z,7.33
2017-02-21T00:48:47.064Z,7.41
2017-02-21T00:48:51.688Z,7.34
2017-02-21T00:48:56.364Z,7.32
2017-02-21T00:49:00.704Z,7.34
2017-02-21T00:49:05.519Z,7.27
2017-02-21T00:49:10.182Z,7.37
2017-02-21T00:49:14.684Z,7.32
2017-02-21T00:49:19.319Z,7.36
2017-02-21T00:49:23.828Z,7.34
2017-02-21T00:49:28.046Z,7.32
2017-02-21T00:49:32.674Z,7.32
2017-02-21T00:49:37.324Z,7.33
2017-02-21T00:49:41.983Z,7.37
2017-02-21T00:49:46.480Z,7.3
2017-02-21T00:49:51.133Z,7.29
2017-02-21T00:49:55.622Z,7.3
2017-02-21T00:50:00.290Z,7.32
2017-02-21T00:50:04.840Z,7.32
2017-02-21T00:50:09.487Z,7.32
2017-02-21T00:50:14.123Z,7.34
2017-02-21T00:50:18.771Z,7.39
2017-02-21T00:50:23.412Z,7.41
2017-02-21T00:50:28.051Z,7.3
2017-02-21T00:50:32.699Z,7.3
2017-02-21T00:50:37.340Z,7.32
2017-02-21T00:50:41.696Z,7.36
2017-02-21T00:50:46.216Z,7.39
2017-02-21T00:50:50.740Z,7.32
2017-02-21T00:50:55.410Z,7.34
2017-02-21T00:51:00.064Z,7.34
2017-02-21T00:51:04.752Z,7.42
2017-02-21T00:51:09.389Z,7.41
2017-02-21T00:51:14.026Z,7.34
2017-02-21T00:51:18.526Z,7.37
2017-02-21T00:51:23.201Z,7.33
2017-02-21T00:51:27.545Z,7.42
2017-02-21T00:51:32.038Z,7.3
2017-02-21T00:51:36.759Z,7.41
2017-02-21T00:51:41.410Z,7.33
2017-02-21T00:51:46.061Z,7.33
2017-02-21T00:51:50.576Z,7.33
2017-02-21T00:51:55.100Z,7.36
2017-02-21T00:51:59.759Z,7.39
2017-02-21T00:52:04.401Z,7.39
2017-02-21T00:52:08.472Z,7.32
2017-02-21T00:52:13.117Z,7.33
2017-02-21T00:52:17.620Z,7.33
2017-02-21T00:52:22.268Z,7.3
2017-02-21T00:52:26.778Z,7.32
2017-02-21T00:52:31.282Z,7.39
2017-02-21T00:52:35.913Z,7.34
2017-02-21T00:52:40.410Z,7.36
2017-02-21T00:52:45.042Z,7.33
2017-02-21T00:52:49.555Z,7.34
2017-02-21T00:52:54.246Z,7.3
2017-02-21T00:52:58.732Z,7.36
2017-02-21T00:53:03.639Z,7.33
2017-02-21T00:53:08.130Z,7.32
2017-02-21T00:53:12.787Z,7.3
2017-02-21T00:53:17.289Z,7.34
2017-02-21T00:53:21.930Z,7.33
2017-02-21T00:53:26.295Z,7.37
2017-02-21T00:53:30.778Z,7.44
2017-02-21T00:53:35.419Z,7.39
2017-02-21T00:53:40.054Z,7.33
2017-02-21T00:53:44.707Z,7.39
2017-02-21T00:53:49.048Z,7.37
2017-02-21T00:53:53.578Z,7.33
2017-02-21T00:53:58.214Z,7.42
2017-02-21T00:54:02.862Z,7.3
2017-02-21T00:54:07.205Z,7.37
2017-02-21T00:54:11.567Z,7.45
2017-02-21T00:54:15.907Z,7.37
2017-02-21T00:54:20.550Z,7.36
2017-02-21T00:54:25.051Z,7.33
2017-02-21T00:54:29.556Z,7.3
2017-02-21T00:54:34.214Z,7.39
2017-02-21T00:54:38.724Z,7.34
2017-02-21T00:54:43.217Z,7.33
2017-02-21T00:54:47.699Z,7.3
2017-02-21T00:54:52.210Z,7.33
2017-02-21T00:54:56.706Z,7.41
2017-02-21T00:55:01.223Z,7.42
2017-02-21T00:55:05.738Z,7.36
2017-02-21T00:55:10.125Z,7.36
2017-02-21T00:55:14.617Z,7.37
2017-02-21T00:55:19.257Z,7.33
2017-02-21T00:55:23.912Z,7.29
2017-02-21T00:55:28.268Z,7.36
2017-02-21T00:55:32.918Z,7.37
2017-02-21T00:55:37.566Z,7.33
2017-02-21T00:55:42.068Z,7.44
2017-02-21T00:55:46.572Z,7.44
2017-02-21T00:55:51.105Z,7.32
2017-02-21T00:55:55.780Z,7.37
2017-02-21T00:56:00.419Z,7.33
2017-02-21T00:56:05.443Z,7.37
2017-02-21T00:56:09.930Z,7.33
2017-02-21T00:56:14.282Z,7.39
2017-02-21T00:56:18.919Z,7.32
2017-02-21T00:56:23.567Z,7.39
2017-02-21T00:56:28.102Z,7.36
2017-02-21T00:56:32.601Z,7.36
2017-02-21T00:56:37.260Z,7.44
2017-02-21T00:56:41.929Z,7.44
2017-02-21T00:56:46.420Z,7.37
2017-02-21T00:56:51.108Z,7.39
2017-02-21T00:56:55.756Z,7.39
2017-02-21T00:57:00.401Z,7.42
2017-02-21T00:57:05.047Z,7.45
2017-02-21T00:57:09.395Z,7.45
2017-02-21T00:57:13.889Z,7.44
2017-02-21T00:57:18.555Z,7.36
2017-02-21T00:57:23.051Z,7.33
2017-02-21T00:57:27.531Z,7.42
2017-02-21T00:57:32.044Z,7.42
2017-02-21T00:57:36.697Z,7.44
2017-02-21T00:57:41.194Z,7.33
2017-02-21T00:57:45.837Z,7.44
2017-02-21T00:57:50.472Z,7.42
2017-02-21T00:57:55.130Z,7.44
2017-02-21T00:57:59.780Z,7.44
2017-02-21T00:58:04.585Z,7.42
2017-02-21T00:58:09.083Z,7.44
2017-02-21T00:58:13.619Z,7.42
2017-02-21T00:58:17.967Z,7.42
2017-02-21T00:58:22.623Z,7.42
2017-02-21T00:58:27.285Z,7.33
2017-02-21T00:58:31.769Z,7.44
2017-02-21T00:58:36.428Z,7.42
2017-02-21T00:58:40.927Z,7.39
2017-02-21T00:58:45.428Z,7.36
2017-02-21T00:58:50.078Z,7.34
2017-02-21T00:58:54.566Z,7.48
2017-02-21T00:58:59.211Z,7.44
2017-02-21T00:59:04.158Z,7.44
2017-02-21T00:59:08.799Z,7.41
2017-02-21T00:59:13.304Z,7.37
2017-02-21T00:59:17.797Z,7.45
2017-02-21T00:59:22.440Z,7.27
2017-02-21T00:59:27.106Z,7.41
2017-02-21T00:59:31.604Z,7.39
2017-02-21T00:59:36.267Z,7.33
2017-02-21T00:59:40.911Z,7.36
2017-02-21T00:59:45.455Z,7.36
2017-02-21T00:59:50.107Z,7.48
2017-02-21T00:59:54.739Z,7.42
2017-02-21T00:59:59.387Z,7.39
2017-02-21T01:00:03.888Z,7.42
2017-02-21T01:00:08.544Z,7.42
2017-02-21T01:00:13.066Z,7.37
2017-02-21T01:00:17.591Z,7.44
2017-02-21T01:00:22.225Z,7.42
2017-02-21T01:00:26.732Z,7.45
2017-02-21T01:00:31.393Z,7.33
2017-02-21T01:00:36.043Z,7.39
2017-02-21T01:00:40.681Z,7.39
2017-02-21T01:00:45.389Z,7.41
2017-02-21T01:00:50.039Z,7.37
2017-02-21T01:00:54.526Z,7.41
2017-02-21T01:00:59.178Z,7.42
2017-02-21T01:01:04.172Z,7.37